Impacts TAF Board
For situational awareness. Not to be used for flight planning purposes.
IDs:

KHPN - White Plains/Westche, NY, US

Issued at 0525 UTC 03 Aug 2021
Updated at 0820 UTC 03 Aug 2021
Potential Impact None Slight Moderate High
Time0756Z 03/09Z 03/10Z 03/11Z 03/12Z 03/13Z 03/14Z 03/15Z 03/16Z 03/17Z 03/18Z 03/19Z 03/20Z 03/21Z>>
Type OBS PRVL PRVL PRVL PRVL PRVL PRVL PRVL PRVL PRVL PRVL PRVL PRVL PRVL
VIS 10 >6 >6 >6 >6 >6 >6 >6 >6 >6 >6 >6 >6 >6
CIG -- -- -- -- -- -- -- -- -- -- -- -- -- --
Cover CLR SCT SCT SCT SCT SCT SCT FEW FEW FEW FEW FEW FEW SCT
FltCat VFR VFR VFR VFR VFR VFR VFR VFR VFR VFR VFR VFR VFR VFR
WX -- -- -- -- -- -- -- -- -- -- -- -- -- --
WDir 300 VRB VRB VRB VRB VRB VRB 280 280 280 210 210 210 160
WSpd 5 4 4 4 4 4 4 4 4 4 6 6 6 5
WGst -- -- -- -- -- -- -- -- -- -- -- -- -- --
Raw TAF
KHPN 030525Z 0306/0406 VRB04KT P6SM SCT050
  FM031500 28004KT P6SM FEW050 FEW250
  FM031800 21006KT P6SM FEW050 FEW250
  FM032100 16005KT P6SM FEW050 SCT250
  FM040100 VRB03KT P6SM BKN050


Raw METAR
KHPN 030756Z 30005KT 10SM CLR 16/12 A3010 RMK AO2 SLP190 T01610122 $
KHPN 030656Z 31007KT 10SM FEW070 16/12 A3010 RMK AO2 SLP189 T01560122 $
KHPN 030556Z 31006KT 10SM SCT065 17/12 A3009 RMK AO2 SLP187 T01670122 10211 20161 50008 $

METAR Board
Radar Display
Forecast Discussion
For situational awareness. Not to be used for flight planning purposes.